Terminal Aerodrome Forecast
Issued by NWS

Home | Current Version | Previous Version | Text Only | Print | Product List | Glossary On
Versions: 1 2 3 4 5 6 7 8 9 10 11 12 13 14 15 16 17
000
FTUS46 KMTR 202000 AAB
TAFMRY
TAF AMD
KMRY 202055Z 2021/2118 VRB03KT P6SM BKN015
     FM210200 24005KT P6SM OVC010
     FM210700 VRB03KT P6SM OVC004=

USA.gov is the U.S. government's official web portal to all federal, state and local government web resources and services.